createdAt,value
2018-12-15T00:00:24.488Z,18.33
2018-12-15T00:02:52.682Z,18.80
2018-12-15T00:05:21.097Z,18.10
2018-12-15T00:07:49.309Z,18.87
2018-12-15T00:10:17.538Z,18.07
2018-12-15T00:12:45.716Z,20.10
2018-12-15T00:15:13.917Z,18.87
2018-12-15T00:17:42.090Z,18.07
2018-12-15T00:20:10.263Z,18.67
2018-12-15T00:22:38.464Z,18.13
2018-12-15T00:25:06.637Z,18.43
2018-12-15T00:27:34.808Z,16.77
2018-12-15T00:30:03.013Z,18.73
2018-12-15T00:32:31.206Z,19.00
2018-12-15T00:34:59.383Z,17.60
2018-12-15T00:37:27.584Z,18.87
2018-12-15T00:39:55.740Z,18.73
2018-12-15T00:42:32.951Z,17.27
2018-12-15T00:45:01.167Z,18.47
2018-12-15T00:47:29.346Z,18.60
2018-12-15T00:49:57.616Z,18.37
2018-12-15T00:52:25.795Z,17.80
2018-12-15T00:54:53.973Z,19.57
2018-12-15T00:57:22.196Z,17.93
2018-12-15T00:59:50.373Z,15.40
2018-12-15T01:02:18.543Z,17.60
2018-12-15T01:04:46.760Z,18.83
2018-12-15T01:07:14.937Z,17.53
2018-12-15T01:09:43.108Z,17.67
2018-12-15T01:12:11.390Z,17.40
2018-12-15T01:14:39.567Z,19.67
2018-12-15T01:17:07.741Z,18.53
2018-12-15T01:19:35.941Z,18.00
2018-12-15T01:22:04.118Z,18.53
2018-12-15T01:24:32.301Z,17.80
2018-12-15T01:27:00.490Z,17.60
2018-12-15T01:29:28.662Z,17.77
2018-12-15T01:31:57.008Z,17.30
2018-12-15T01:34:25.216Z,17.50
2018-12-15T01:36:53.386Z,17.27
2018-12-15T01:39:21.561Z,18.70
2018-12-15T01:41:49.751Z,17.80
2018-12-15T01:44:17.932Z,16.60
2018-12-15T01:46:46.145Z,18.63
2018-12-15T01:49:14.372Z,17.07
2018-12-15T01:51:42.587Z,18.63
2018-12-15T01:54:10.760Z,15.27
2018-12-15T01:56:38.996Z,14.27
2018-12-15T01:59:07.184Z,12.93
2018-12-15T02:01:35.451Z,12.77
2018-12-15T02:04:03.674Z,13.23
2018-12-15T02:06:31.848Z,13.10
2018-12-15T02:09:00.020Z,13.90
2018-12-15T02:11:28.241Z,12.77
2018-12-15T02:13:56.431Z,12.50
2018-12-15T02:16:24.662Z,13.10
2018-12-15T02:18:52.860Z,12.50
2018-12-15T02:21:21.034Z,12.87
2018-12-15T02:23:49.222Z,12.77
2018-12-15T02:26:17.548Z,13.03
2018-12-15T02:28:45.728Z,13.33
2018-12-15T02:31:14.007Z,13.10
2018-12-15T02:33:42.202Z,13.67
2018-12-15T02:36:10.377Z,12.57
2018-12-15T02:38:38.697Z,14.53
2018-12-15T02:41:06.924Z,13.27
2018-12-15T02:43:35.100Z,13.87
2018-12-15T02:46:03.411Z,14.10
2018-12-15T02:48:31.624Z,13.83
2018-12-15T02:50:59.808Z,14.07
2018-12-15T02:53:28.087Z,13.73
2018-12-15T02:55:56.335Z,14.17
2018-12-15T02:58:24.626Z,15.10
2018-12-15T03:00:52.807Z,14.93
2018-12-15T03:03:21.012Z,16.40
2018-12-15T03:05:49.185Z,15.90
2018-12-15T03:08:17.358Z,14.93
2018-12-15T03:10:45.555Z,14.50
2018-12-15T03:13:13.750Z,12.77
2018-12-15T03:15:41.940Z,14.30
2018-12-15T03:18:10.134Z,13.70
2018-12-15T03:20:38.323Z,17.30
2018-12-15T03:23:06.502Z,15.27
2018-12-15T03:25:34.712Z,14.53
2018-12-15T03:28:03.021Z,14.00
2018-12-15T03:30:31.199Z,13.30
2018-12-15T03:32:59.398Z,15.13
2018-12-15T03:35:27.579Z,14.53
2018-12-15T03:37:55.762Z,15.13
2018-12-15T03:40:23.983Z,15.00
2018-12-15T03:42:52.163Z,15.37
2018-12-15T03:45:20.423Z,16.30
2018-12-15T03:47:55.890Z,15.83
2018-12-15T03:50:18.883Z,17.03
2018-12-15T03:52:47.247Z,17.07
2018-12-15T03:55:15.458Z,17.30
2018-12-15T03:57:43.651Z,18.17
2018-12-15T04:00:11.848Z,15.50
2018-12-15T04:02:40.042Z,16.83
2018-12-15T04:05:08.219Z,16.73
2018-12-15T04:07:36.399Z,17.87
2018-12-15T04:10:05.306Z,15.57
2018-12-15T04:12:33.503Z,16.50
2018-12-15T04:15:01.697Z,15.73
2018-12-15T04:17:29.901Z,16.23
2018-12-15T04:19:58.096Z,19.33
2018-12-15T04:22:26.274Z,17.47
2018-12-15T04:24:54.525Z,16.53
2018-12-15T04:27:22.700Z,16.57
2018-12-15T04:29:50.893Z,19.00
2018-12-15T04:32:19.206Z,16.90
2018-12-15T04:34:47.395Z,17.17
2018-12-15T04:37:15.571Z,17.07
2018-12-15T04:39:43.878Z,16.67
2018-12-15T04:42:12.061Z,16.90
2018-12-15T04:44:40.236Z,16.70
2018-12-15T04:47:08.741Z,18.27
2018-12-15T04:49:36.922Z,18.93
2018-12-15T04:52:05.122Z,18.33
2018-12-15T04:54:33.336Z,17.57
2018-12-15T04:57:01.533Z,18.30
2018-12-15T04:59:29.709Z,18.50
2018-12-15T05:01:57.928Z,20.43
2018-12-15T05:04:26.100Z,20.60
2018-12-15T05:06:54.306Z,17.23
2018-12-15T05:09:22.512Z,20.67
2018-12-15T05:11:50.705Z,20.63
2018-12-15T05:14:18.900Z,22.50
2018-12-15T05:16:47.106Z,20.03
2018-12-15T05:19:15.294Z,21.10
2018-12-15T05:21:43.473Z,20.07
2018-12-15T05:24:11.681Z,18.70
2018-12-15T05:26:39.905Z,19.23
2018-12-15T05:29:08.092Z,21.57
2018-12-15T05:31:36.292Z,21.57
2018-12-15T05:34:04.478Z,20.83
2018-12-15T05:36:32.669Z,20.50
2018-12-15T05:39:01.042Z,20.00
2018-12-15T05:41:29.229Z,23.00
2018-12-15T05:43:57.435Z,21.43
2018-12-15T05:46:25.665Z,21.43
2018-12-15T05:48:53.853Z,21.90
2018-12-15T05:51:22.048Z,21.70
2018-12-15T05:53:50.257Z,21.93
2018-12-15T05:56:18.516Z,22.10
2018-12-15T05:58:46.708Z,22.73
2018-12-15T06:01:14.914Z,21.90
2018-12-15T06:03:43.097Z,22.87
2018-12-15T06:06:11.347Z,20.10
2018-12-15T06:08:39.691Z,21.90
2018-12-15T06:11:07.870Z,22.63
2018-12-15T06:13:36.040Z,23.10
2018-12-15T06:16:04.255Z,22.70
2018-12-15T06:18:32.458Z,23.17
2018-12-15T06:21:00.711Z,22.47
2018-12-15T06:23:28.930Z,21.47
2018-12-15T06:25:57.164Z,24.47
2018-12-15T06:28:25.418Z,21.30
2018-12-15T06:30:53.620Z,23.90
2018-12-15T06:33:21.806Z,21.70
2018-12-15T06:35:49.986Z,21.60
2018-12-15T06:38:18.296Z,21.73
2018-12-15T06:40:46.574Z,22.50
2018-12-15T06:43:14.806Z,22.03
2018-12-15T06:45:43.429Z,20.53
2018-12-15T06:48:11.701Z,21.63
2018-12-15T06:50:39.886Z,22.83
2018-12-15T06:53:08.078Z,23.03
2018-12-15T06:55:36.271Z,23.37
2018-12-15T06:58:04.462Z,22.87
2018-12-15T07:00:32.682Z,23.07
2018-12-15T07:03:00.875Z,22.43
2018-12-15T07:05:29.061Z,22.73
2018-12-15T07:07:57.274Z,24.53
2018-12-15T07:10:25.465Z,22.33
2018-12-15T07:12:53.684Z,24.37
2018-12-15T07:15:21.912Z,22.90
2018-12-15T07:17:50.099Z,21.83
2018-12-15T07:20:18.282Z,22.37
2018-12-15T07:22:46.484Z,22.47
2018-12-15T07:25:14.672Z,22.40
2018-12-15T07:27:42.868Z,21.83
2018-12-15T07:30:11.071Z,21.10
2018-12-15T07:32:39.246Z,24.43
2018-12-15T07:35:07.424Z,24.40
2018-12-15T07:37:35.633Z,23.07
2018-12-15T07:40:03.808Z,22.17
2018-12-15T07:42:32.637Z,23.07
2018-12-15T07:45:00.862Z,21.97
2018-12-15T07:47:29.119Z,23.10
2018-12-15T07:49:57.294Z,22.97
2018-12-15T07:52:25.620Z,24.20
2018-12-15T07:54:54.103Z,26.73
2018-12-15T07:57:22.281Z,23.57
2018-12-15T07:59:50.543Z,24.27
2018-12-15T08:02:18.717Z,22.60
2018-12-15T08:04:46.899Z,23.70
2018-12-15T08:07:15.373Z,23.77
2018-12-15T08:09:43.910Z,24.90
2018-12-15T08:12:17.817Z,24.10
2018-12-15T08:14:46.099Z,25.67
2018-12-15T08:17:14.283Z,26.57
2018-12-15T08:19:42.598Z,24.53
2018-12-15T08:22:10.769Z,25.10
2018-12-15T08:24:39.076Z,24.07
2018-12-15T08:27:07.410Z,22.93
2018-12-15T08:29:35.653Z,22.90
2018-12-15T08:32:03.828Z,24.27
2018-12-15T08:34:32.035Z,23.43
2018-12-15T08:37:00.213Z,25.20
2018-12-15T08:39:28.394Z,24.93
2018-12-15T08:41:56.589Z,20.73
2018-12-15T08:44:24.770Z,23.83
2018-12-15T08:46:53.298Z,24.43
2018-12-15T08:49:21.542Z,22.70
2018-12-15T08:51:49.718Z,30.00
2018-12-15T08:54:17.915Z,23.70
2018-12-15T08:56:46.136Z,22.23
2018-12-15T08:59:14.315Z,22.47
2018-12-15T09:01:42.507Z,22.23
2018-12-15T09:04:10.711Z,21.57
2018-12-15T09:06:39.187Z,21.90
2018-12-15T09:09:07.358Z,21.37
2018-12-15T09:11:35.564Z,22.33
2018-12-15T09:14:03.758Z,22.10
2018-12-15T09:16:31.969Z,22.60
2018-12-15T09:19:00.363Z,21.00
2018-12-15T09:21:28.664Z,21.40
2018-12-15T09:23:56.833Z,21.90
2018-12-15T09:26:25.041Z,22.20
2018-12-15T09:28:53.279Z,21.77
2018-12-15T09:31:21.562Z,21.40
2018-12-15T09:33:49.779Z,21.40
2018-12-15T09:36:17.964Z,22.30
2018-12-15T09:38:46.148Z,24.37
2018-12-15T09:41:14.340Z,21.80
2018-12-15T09:43:42.520Z,22.67
2018-12-15T09:46:10.702Z,21.23
2018-12-15T09:48:38.917Z,21.77
2018-12-15T09:51:07.093Z,20.63
2018-12-15T09:53:35.261Z,19.83
2018-12-15T09:56:03.448Z,21.60
2018-12-15T09:58:31.627Z,21.00
2018-12-15T10:00:59.807Z,20.80
2018-12-15T10:03:28.006Z,21.20
2018-12-15T10:05:56.195Z,19.73
2018-12-15T10:08:24.489Z,18.90
2018-12-15T10:10:52.690Z,20.43
2018-12-15T10:13:20.932Z,21.27
2018-12-15T10:15:49.106Z,24.90
2018-12-15T10:18:17.333Z,23.10
2018-12-15T10:20:45.505Z,20.03
2018-12-15T10:23:13.710Z,21.67
2018-12-15T10:25:41.903Z,19.73
2018-12-15T10:28:10.252Z,21.60
2018-12-15T10:30:44.117Z,20.27
2018-12-15T10:33:12.315Z,20.90
2018-12-15T10:35:40.493Z,19.10
2018-12-15T10:38:08.810Z,20.17
2018-12-15T10:40:36.988Z,20.70
2018-12-15T10:43:05.164Z,20.93
2018-12-15T10:45:33.412Z,20.90
2018-12-15T10:48:01.586Z,20.17
2018-12-15T10:50:29.760Z,20.83
2018-12-15T10:52:57.986Z,21.80
2018-12-15T10:55:26.315Z,21.13
2018-12-15T10:57:54.493Z,19.70
2018-12-15T11:00:26.553Z,20.93
2018-12-15T11:02:55.133Z,21.40
2018-12-15T11:05:24.637Z,10.00
2018-12-15T11:07:52.845Z,8.30
2018-12-15T11:10:21.117Z,14.50
2018-12-15T11:12:49.317Z,13.00
2018-12-15T11:15:17.592Z,11.17
2018-12-15T11:17:45.866Z,8.80
2018-12-15T11:20:14.130Z,8.30
2018-12-15T11:22:42.325Z,8.17
2018-12-15T11:25:10.505Z,8.10
2018-12-15T11:27:38.756Z,7.00
2018-12-15T11:30:06.950Z,7.73
2018-12-15T11:32:35.129Z,7.37
2018-12-15T11:35:05.316Z,8.10
2018-12-15T11:37:33.629Z,8.13
2018-12-15T11:40:01.798Z,8.53
2018-12-15T11:42:29.992Z,8.40
2018-12-15T11:44:58.223Z,8.37
2018-12-15T11:47:26.396Z,7.40
2018-12-15T11:49:54.570Z,7.90
2018-12-15T11:52:22.828Z,7.70
2018-12-15T11:54:51.124Z,7.50
2018-12-15T11:57:19.299Z,7.70
2018-12-15T11:59:47.596Z,8.20
2018-12-15T12:02:15.879Z,8.10
2018-12-15T12:04:44.070Z,7.43
2018-12-15T12:07:12.280Z,7.77
2018-12-15T12:09:40.485Z,8.57
2018-12-15T12:12:08.662Z,9.10
2018-12-15T12:14:36.922Z,7.73
2018-12-15T12:17:05.098Z,8.27
2018-12-15T12:19:33.353Z,8.23
2018-12-15T12:22:01.554Z,8.57
2018-12-15T12:24:29.750Z,7.80
2018-12-15T12:26:58.181Z,7.20
2018-12-15T12:29:26.389Z,7.50
2018-12-15T12:31:54.553Z,7.83
2018-12-15T12:34:22.728Z,7.93
2018-12-15T12:36:50.933Z,7.97
2018-12-15T12:39:19.121Z,7.80
2018-12-15T12:41:47.308Z,7.70
2018-12-15T12:44:15.532Z,7.27
2018-12-15T12:46:43.762Z,7.40
2018-12-15T12:49:11.936Z,7.53
2018-12-15T12:51:40.141Z,7.50
2018-12-15T12:54:08.460Z,8.03
2018-12-15T12:56:36.670Z,8.30
2018-12-15T12:59:04.882Z,8.03
2018-12-15T13:01:34.326Z,7.07
2018-12-15T13:04:02.666Z,7.43
2018-12-15T13:06:30.913Z,6.87
2018-12-15T13:08:59.098Z,7.87
2018-12-15T13:11:27.286Z,7.93
2018-12-15T13:13:55.476Z,7.40
2018-12-15T13:16:23.812Z,7.37
2018-12-15T13:18:51.990Z,8.30
2018-12-15T13:21:20.223Z,8.77
2018-12-15T13:23:48.407Z,8.20
2018-12-15T13:26:16.594Z,8.10
2018-12-15T13:28:44.930Z,8.10
2018-12-15T13:31:13.101Z,9.30
2018-12-15T13:33:41.274Z,7.07
2018-12-15T13:36:13.344Z,7.93
2018-12-15T13:38:41.792Z,6.97
2018-12-15T13:41:09.964Z,7.70
2018-12-15T13:43:38.159Z,8.07
2018-12-15T13:46:06.339Z,8.20
2018-12-15T13:48:34.514Z,8.10
2018-12-15T13:51:02.708Z,7.33
2018-12-15T13:53:30.961Z,8.27
2018-12-15T13:55:59.245Z,10.63
2018-12-15T13:58:27.459Z,7.30
2018-12-15T14:00:55.636Z,6.23
2018-12-15T14:03:23.922Z,6.60
2018-12-15T14:05:52.125Z,7.67
2018-12-15T14:08:20.297Z,7.23
2018-12-15T14:10:48.469Z,7.50
2018-12-15T14:13:16.666Z,6.90
2018-12-15T14:15:44.839Z,8.50
2018-12-15T14:18:13.100Z,7.50
2018-12-15T14:20:41.459Z,8.67
2018-12-15T14:23:09.630Z,7.50
2018-12-15T14:25:37.848Z,7.43
2018-12-15T14:28:06.040Z,7.10
2018-12-15T14:30:34.204Z,7.27
2018-12-15T14:33:02.362Z,7.33
2018-12-15T14:35:30.753Z,8.17
2018-12-15T14:37:58.908Z,5.90
2018-12-15T14:40:27.080Z,7.20
2018-12-15T14:42:55.263Z,6.73
2018-12-15T14:45:23.420Z,6.53
2018-12-15T14:47:51.599Z,7.63
2018-12-15T14:50:23.417Z,6.33
2018-12-15T14:52:50.216Z,6.87
2018-12-15T14:55:18.403Z,6.60
2018-12-15T14:57:46.611Z,6.47
2018-12-15T15:00:14.779Z,6.33
2018-12-15T15:02:42.963Z,7.43
2018-12-15T15:05:11.162Z,6.03
2018-12-15T15:07:39.323Z,7.37
2018-12-15T15:10:07.515Z,6.07
2018-12-15T15:12:35.710Z,6.27
2018-12-15T15:15:05.267Z,6.60
2018-12-15T15:17:33.512Z,6.87
2018-12-15T15:20:01.735Z,5.40
2018-12-15T15:22:29.921Z,6.13
2018-12-15T15:24:58.329Z,6.77
2018-12-15T15:27:26.542Z,5.93
2018-12-15T15:29:54.836Z,6.63
2018-12-15T15:32:23.012Z,5.90
2018-12-15T15:34:51.219Z,6.97
2018-12-15T15:37:19.409Z,7.60
2018-12-15T15:39:47.679Z,5.80
2018-12-15T15:42:15.901Z,5.90
2018-12-15T15:44:44.064Z,6.20
2018-12-15T15:47:12.249Z,6.97
2018-12-15T15:49:40.565Z,6.53
2018-12-15T15:52:08.872Z,6.90
2018-12-15T15:54:37.061Z,6.47
2018-12-15T15:57:05.274Z,6.30
2018-12-15T15:59:33.442Z,6.30
2018-12-15T16:02:01.612Z,6.87
2018-12-15T16:04:29.807Z,7.07
2018-12-15T16:06:58.097Z,6.43
2018-12-15T16:09:26.273Z,6.93
2018-12-15T16:11:54.497Z,7.17
2018-12-15T16:14:22.669Z,7.40
2018-12-15T16:16:50.858Z,6.30
2018-12-15T16:19:19.055Z,6.47
2018-12-15T16:21:47.239Z,7.37
2018-12-15T16:24:15.405Z,6.40
2018-12-15T16:26:43.739Z,5.80
2018-12-15T16:29:11.924Z,6.10
2018-12-15T16:31:40.287Z,6.50
2018-12-15T16:34:08.493Z,7.10
2018-12-15T16:36:36.711Z,8.80
2018-12-15T16:39:06.773Z,7.30
2018-12-15T16:41:34.966Z,7.47
2018-12-15T16:44:03.137Z,6.47
2018-12-15T16:46:31.458Z,6.73
2018-12-15T16:48:59.944Z,6.73
2018-12-15T16:51:28.225Z,6.00
2018-12-15T16:53:56.397Z,5.70
2018-12-15T16:56:24.593Z,6.87
2018-12-15T16:58:52.771Z,8.00
2018-12-15T17:01:20.957Z,7.20
2018-12-15T17:03:49.264Z,6.43
2018-12-15T17:06:17.456Z,7.20
2018-12-15T17:08:45.644Z,6.70
2018-12-15T17:11:13.925Z,5.37
2018-12-15T17:13:42.110Z,6.83
2018-12-15T17:16:10.277Z,6.13
2018-12-15T17:18:38.479Z,6.57
2018-12-15T17:21:06.664Z,7.77
2018-12-15T17:23:34.849Z,6.27
2018-12-15T17:26:03.072Z,6.70
2018-12-15T17:28:31.397Z,5.90
2018-12-15T17:30:59.812Z,6.27
2018-12-15T17:33:28.003Z,6.00
2018-12-15T17:35:56.181Z,5.80
2018-12-15T17:38:24.355Z,5.93
2018-12-15T17:40:52.568Z,6.50
2018-12-15T17:43:20.744Z,7.07
2018-12-15T17:45:48.948Z,5.43
2018-12-15T17:48:17.157Z,6.47
2018-12-15T17:50:45.429Z,7.90
2018-12-15T17:53:13.599Z,5.90
2018-12-15T17:55:41.804Z,7.17
2018-12-15T17:58:14.702Z,6.53
2018-12-15T18:00:40.175Z,7.80
2018-12-15T18:03:08.378Z,7.90
2018-12-15T18:05:36.548Z,6.10
2018-12-15T18:08:04.731Z,6.50
2018-12-15T18:10:33.791Z,6.50
2018-12-15T18:13:02.069Z,6.80
2018-12-15T18:15:30.304Z,7.00
2018-12-15T18:17:58.525Z,6.20
2018-12-15T18:20:26.801Z,6.80
2018-12-15T18:22:54.996Z,6.10
2018-12-15T18:25:23.173Z,6.03
2018-12-15T18:27:51.369Z,6.53
2018-12-15T18:30:19.651Z,7.00
2018-12-15T18:32:47.854Z,6.03
2018-12-15T18:35:16.068Z,6.90
2018-12-15T18:37:44.242Z,7.00
2018-12-15T18:40:12.446Z,6.23
2018-12-15T18:42:40.643Z,7.30
2018-12-15T18:45:09.703Z,6.17
2018-12-15T18:47:37.955Z,5.90
2018-12-15T18:50:08.592Z,6.73
2018-12-15T18:52:36.963Z,5.20
2018-12-15T18:55:05.191Z,6.20
2018-12-15T18:57:33.373Z,5.67
2018-12-15T19:00:01.548Z,5.40
2018-12-15T19:05:04.776Z,6.40
2018-12-15T19:07:33.015Z,6.30
2018-12-15T19:10:01.265Z,6.70
2018-12-15T19:12:29.442Z,6.73
2018-12-15T19:14:57.718Z,7.37
2018-12-15T19:17:25.890Z,7.30
2018-12-15T19:19:54.216Z,6.43
2018-12-15T19:22:22.416Z,6.00
2018-12-15T19:24:50.628Z,6.00
2018-12-15T19:27:18.803Z,6.47
2018-12-15T19:29:47.004Z,6.07
2018-12-15T19:32:15.289Z,5.67
2018-12-15T19:34:43.516Z,5.73
2018-12-15T19:37:11.701Z,5.80
2018-12-15T19:39:39.890Z,6.70
2018-12-15T19:42:08.072Z,5.80
2018-12-15T19:44:36.276Z,6.40
2018-12-15T19:47:04.446Z,5.97
2018-12-15T19:49:32.627Z,6.13
2018-12-15T19:52:00.838Z,6.60
2018-12-15T19:54:29.015Z,6.60
2018-12-15T19:56:57.200Z,5.93
2018-12-15T19:59:25.383Z,7.10
2018-12-15T20:01:53.581Z,6.30
2018-12-15T20:04:21.766Z,7.63
2018-12-15T20:06:49.958Z,5.90
2018-12-15T20:09:18.146Z,6.93
2018-12-15T20:11:46.460Z,6.57
2018-12-15T20:14:14.742Z,7.07
2018-12-15T20:16:42.923Z,6.30
2018-12-15T20:19:11.100Z,7.00
2018-12-15T20:21:39.319Z,6.20
2018-12-15T20:24:07.640Z,6.80
2018-12-15T20:26:35.907Z,7.10
2018-12-15T20:29:04.226Z,6.20
2018-12-15T20:31:32.636Z,9.43
2018-12-15T20:34:00.816Z,7.53
2018-12-15T20:36:29.005Z,5.90
2018-12-15T20:38:57.176Z,6.87
2018-12-15T20:41:25.406Z,6.80
2018-12-15T20:43:53.632Z,6.37
2018-12-15T20:46:21.814Z,7.90
2018-12-15T20:48:49.988Z,7.70
2018-12-15T20:51:18.256Z,8.33
2018-12-15T20:53:46.440Z,12.93
2018-12-15T20:56:14.686Z,8.50
2018-12-15T20:58:42.975Z,7.33
2018-12-15T21:01:11.146Z,7.53
2018-12-15T21:03:39.332Z,9.13
2018-12-15T21:06:07.534Z,7.67
2018-12-15T21:08:35.736Z,8.60
2018-12-15T21:11:04.202Z,9.07
2018-12-15T21:13:32.393Z,7.33
2018-12-15T21:16:00.651Z,9.60
2018-12-15T21:18:28.804Z,8.20
2018-12-15T21:20:57.002Z,8.70
2018-12-15T21:23:25.179Z,10.20
2018-12-15T21:25:53.373Z,8.87
2018-12-15T21:28:21.577Z,9.63
2018-12-15T21:30:49.778Z,7.13
2018-12-15T21:33:17.970Z,8.10
2018-12-15T21:35:46.192Z,26.27
2018-12-15T21:38:14.383Z,20.13
2018-12-15T21:40:42.571Z,15.20
2018-12-15T21:43:10.777Z,12.37
2018-12-15T21:45:38.984Z,13.20
2018-12-15T21:48:07.168Z,11.73
2018-12-15T21:50:35.370Z,9.10
2018-12-15T21:53:03.568Z,15.07
2018-12-15T21:55:31.763Z,19.60
2018-12-15T21:57:59.976Z,19.60
2018-12-15T22:00:28.562Z,18.43
2018-12-15T22:02:56.764Z,19.27
2018-12-15T22:05:25.200Z,17.73
2018-12-15T22:07:53.378Z,17.97
2018-12-15T22:10:21.756Z,19.13
2018-12-15T22:12:49.958Z,20.30
2018-12-15T22:15:18.133Z,22.50
2018-12-15T22:17:46.316Z,20.87
2018-12-15T22:20:15.013Z,23.33
2018-12-15T22:22:43.194Z,22.40
2018-12-15T22:25:11.394Z,22.83
2018-12-15T22:27:39.604Z,21.87
2018-12-15T22:30:08.307Z,22.80
2018-12-15T22:32:36.483Z,22.37
2018-12-15T22:35:05.351Z,25.33
2018-12-15T22:37:33.544Z,21.33
2018-12-15T22:40:01.725Z,24.07
2018-12-15T22:42:29.932Z,23.77
2018-12-15T22:44:58.173Z,22.37
2018-12-15T22:47:26.365Z,21.20
2018-12-15T22:49:54.572Z,23.53
2018-12-15T22:52:22.778Z,24.13
2018-12-15T22:54:50.985Z,24.50
2018-12-15T22:57:19.272Z,24.83
2018-12-15T22:59:47.448Z,24.33
2018-12-15T23:02:15.660Z,24.10
2018-12-15T23:04:44.230Z,24.60
2018-12-15T23:07:12.494Z,24.03
2018-12-15T23:09:40.700Z,22.73
2018-12-15T23:12:08.919Z,23.13
2018-12-15T23:14:37.107Z,22.10
2018-12-15T23:17:06.488Z,23.23
2018-12-15T23:19:34.711Z,21.97
2018-12-15T23:22:02.890Z,22.10
2018-12-15T23:24:31.075Z,24.27
2018-12-15T23:26:59.312Z,22.70
2018-12-15T23:29:27.501Z,22.53
2018-12-15T23:31:55.684Z,23.67
2018-12-15T23:34:24.014Z,22.70
2018-12-15T23:36:52.436Z,23.27
2018-12-15T23:39:20.740Z,24.53
2018-12-15T23:41:48.954Z,23.60
2018-12-15T23:44:17.269Z,24.57
2018-12-15T23:46:45.576Z,23.53
2018-12-15T23:49:13.927Z,24.37
2018-12-15T23:51:42.103Z,23.77
2018-12-15T23:54:10.281Z,23.70
2018-12-15T23:56:38.503Z,21.50
2018-12-15T23:59:07.087Z,22.83
